Time;durP1;ratioP1;P1;durP2;ratioP2;P2;SDS_P1;SDS_P2;PMS_P1;PMS_P2;Temp;Humidity;BMP_temperature;BMP_pressure;BME280_temperature;BME280_humidity;BME280_pressure;Samples;Min_cycle;Max_cycle;Signal;HPM_P1;HPM_P2
2022/04/13 00:02:05;;;;;;;0.75;0.60;;;;;;;3.94;100.00;97704.13;6223994;22;20454;-87
2022/04/13 00:04:30;;;;;;;0.10;0.10;;;;;;;3.92;100.00;97699.81;6226184;22;20006;-90
2022/04/13 00:06:56;;;;;;;0.80;0.80;;;;;;;3.79;100.00;97699.34;6226549;22;20027;-90
2022/04/13 00:09:21;;;;;;;0.68;0.68;;;;;;;3.80;100.00;97715.16;6226494;22;20002;-88
2022/04/13 00:11:47;;;;;;;0.20;0.20;;;;;;;3.71;100.00;97696.97;6225986;22;20086;-86
2022/04/13 00:14:13;;;;;;;0.22;0.22;;;;;;;3.69;100.00;97698.75;6226272;22;20078;-89
2022/04/13 00:16:39;;;;;;;0.20;0.20;;;;;;;3.66;100.00;97698.03;6252430;22;20026;-88
2022/04/13 00:19:05;;;;;;;0.30;0.30;;;;;;;3.52;100.00;97702.88;6226757;22;20004;-89
2022/04/13 00:21:30;;;;;;;0.20;0.20;;;;;;;3.50;100.00;97687.06;6226765;22;19999;-89
2022/04/13 00:23:59;;;;;;;0.10;0.10;;;;;;;3.48;100.00;97688.88;6225937;22;20008;-89
2022/04/13 00:26:24;;;;;;;0.20;0.20;;;;;;;3.50;100.00;97687.06;6227909;22;20014;-89
2022/04/13 00:28:50;;;;;;;0.28;0.28;;;;;;;3.49;100.00;97695.03;6225729;22;20007;-89
2022/04/13 00:31:15;;;;;;;0.20;0.20;;;;;;;3.42;100.00;97697.00;6252122;22;20004;-89
2022/04/13 00:33:41;;;;;;;0.10;0.10;;;;;;;3.41;100.00;97686.50;6226902;22;19999;-90
2022/04/13 00:36:07;;;;;;;0.20;0.20;;;;;;;3.39;100.00;97696.22;6227093;22;20046;-89
2022/04/13 00:38:32;;;;;;;0.20;0.20;;;;;;;3.47;100.00;97713.59;6227000;22;19999;-89
2022/04/13 00:40:58;;;;;;;0.55;0.55;;;;;;;3.48;100.00;97712.66;6226734;22;20004;-89
2022/04/13 00:43:24;;;;;;;12.35;11.27;;;;;;;3.43;100.00;97701.38;6227104;22;20000;-89
2022/04/13 00:45:50;;;;;;;0.52;0.52;;;;;;;3.42;100.00;97698.78;6226169;22;20023;-88
2022/04/13 00:48:36;;;;;;;0.10;0.10;;;;;;;3.42;100.00;97704.06;6258381;22;20003;-89
2022/04/13 00:51:12;;;;;;;0.10;0.10;;;;;;;3.36;100.00;97705.13;6240663;22;20029;-88
2022/04/13 00:53:41;;;;;;;0.28;0.28;;;;;;;3.22;100.00;97683.56;6266567;22;20026;-88
2022/04/13 00:56:08;;;;;;;0.20;0.20;;;;;;;3.33;100.00;97701.72;6266551;22;20003;-88
2022/04/13 00:58:38;;;;;;;0.13;0.13;;;;;;;3.35;100.00;97703.41;6226767;22;20008;-87
2022/04/13 01:01:04;;;;;;;1.60;1.50;;;;;;;3.33;100.00;97699.06;6264651;22;20004;-87
2022/04/13 01:03:30;;;;;;;1.05;0.98;;;;;;;3.27;100.00;97694.84;6238501;22;20002;-88
2022/04/13 01:05:56;;;;;;;0.17;0.17;;;;;;;3.20;100.00;97695.94;6262747;22;20079;-89
2022/04/13 01:08:22;;;;;;;0.28;0.28;;;;;;;3.22;100.00;97697.63;6237102;22;20003;-86
2022/04/13 01:10:49;;;;;;;0.22;0.22;;;;;;;3.23;100.00;97695.88;6237213;22;20007;-88
2022/04/13 01:13:16;;;;;;;0.20;0.20;;;;;;;3.14;100.00;97704.03;6251497;22;20038;-88
2022/04/13 01:15:42;;;;;;;0.82;0.82;;;;;;;3.03;100.00;97674.44;6251721;22;20006;-88
2022/04/13 01:18:08;;;;;;;0.20;0.20;;;;;;;3.11;100.00;97697.06;6250971;22;20004;-87
2022/04/13 01:20:34;;;;;;;0.20;0.20;;;;;;;3.03;100.00;97695.59;6225379;22;19999;-88
2022/04/13 01:23:01;;;;;;;3.20;2.92;;;;;;;2.97;100.00;97701.06;6225300;22;20010;-88
2022/04/13 01:25:28;;;;;;;3.72;3.03;;;;;;;2.85;100.00;97693.50;6250962;22;20232;-87
2022/04/13 01:27:54;;;;;;;0.75;0.75;;;;;;;2.81;100.00;97689.19;6251485;22;20061;-88
2022/04/13 01:30:23;;;;;;;0.85;0.85;;;;;;;2.89;100.00;97692.50;6225282;22;20011;-88
2022/04/13 01:32:50;;;;;;;1.45;1.35;;;;;;;2.84;100.00;97689.09;6221824;23;20169;-88
2022/04/13 01:35:16;;;;;;;0.90;0.90;;;;;;;2.86;100.00;97695.22;6225490;22;20043;-88
2022/04/13 01:37:41;;;;;;;0.65;0.65;;;;;;;2.82;100.00;97690.94;6226229;22;20053;-89
2022/04/13 01:40:07;;;;;;;0.25;0.25;;;;;;;2.81;100.00;97689.19;6250854;22;20007;-88
2022/04/13 01:42:33;;;;;;;0.20;0.20;;;;;;;2.69;100.00;97679.84;6250154;22;20006;-89
2022/04/13 01:44:59;;;;;;;0.30;0.30;;;;;;;2.72;100.00;97696.47;6225836;22;20418;-89
2022/04/13 01:47:24;;;;;;;0.30;0.30;;;;;;;2.68;100.00;97693.97;6226108;22;20011;-89
2022/04/13 01:49:50;;;;;;;0.20;0.20;;;;;;;2.74;100.00;97704.34;6226300;22;20069;-90
2022/04/13 01:52:16;;;;;;;0.20;0.20;;;;;;;2.60;100.00;97685.41;6224715;22;20514;-89
2022/04/13 01:54:41;;;;;;;1.65;1.55;;;;;;;2.63;100.00;97690.59;6226736;22;20019;-89
2022/04/13 01:57:07;;;;;;;0.20;0.20;;;;;;;2.57;100.00;97693.41;6225115;22;20016;-90
2022/04/13 01:59:33;;;;;;;1.63;1.50;;;;;;;2.55;100.00;97696.06;6225675;22;20012;-90
2022/04/13 02:01:58;;;;;;;0.22;0.22;;;;;;;2.54;100.00;97701.41;6225821;22;20007;-88
2022/04/13 02:04:25;;;;;;;0.30;0.30;;;;;;;2.43;100.00;97690.31;6224900;22;20475;-89
2022/04/13 02:06:52;;;;;;;0.25;0.25;;;;;;;2.24;100.00;97674.09;6225212;22;20134;-89
2022/04/13 02:09:18;;;;;;;0.20;0.20;;;;;;;2.33;100.00;97687.03;6225138;22;20018;-88
2022/04/13 02:11:44;;;;;;;0.43;0.43;;;;;;;2.28;100.00;97688.91;6225360;22;20000;-89
2022/04/13 02:14:10;;;;;;;10.43;5.82;;;;;;;2.31;100.00;97695.91;6224098;22;20440;-88
2022/04/13 02:16:36;;;;;;;0.40;0.40;;;;;;;2.13;100.00;97678.78;6225663;22;20018;-89
2022/04/13 02:19:03;;;;;;;0.55;0.55;;;;;;;2.18;100.00;97687.47;6224992;22;20007;-89
2022/04/13 02:21:28;;;;;;;0.20;0.20;;;;;;;2.23;100.00;97680.28;6224771;22;20004;-89
2022/04/13 02:23:54;;;;;;;0.50;0.50;;;;;;;2.22;100.00;97683.81;6225908;22;20089;-90
2022/04/13 02:26:19;;;;;;;1.85;0.90;;;;;;;2.26;100.00;97690.75;6250619;22;20000;-88
2022/04/13 02:28:46;;;;;;;0.30;0.30;;;;;;;2.34;100.00;97686.13;6251210;22;20010;-89
2022/04/13 02:31:12;;;;;;;0.20;0.20;;;;;;;2.40;100.00;97685.94;6225254;22;20003;-88
2022/04/13 02:33:38;;;;;;;0.47;0.47;;;;;;;2.37;100.00;97675.47;6250380;22;20007;-89
2022/04/13 02:36:05;;;;;;;0.30;0.30;;;;;;;2.44;100.00;97684.97;6225884;22;20006;-88
2022/04/13 02:38:31;;;;;;;0.20;0.20;;;;;;;2.41;100.00;97684.19;6225653;22;20068;-88
2022/04/13 02:40:56;;;;;;;0.20;0.20;;;;;;;2.48;100.00;97681.34;6250605;22;20038;-89
2022/04/13 02:43:24;;;;;;;0.40;0.40;;;;;;;2.44;100.00;97678.81;6224673;22;20095;-88
2022/04/13 02:45:50;;;;;;;0.20;0.20;;;;;;;2.44;100.00;97698.16;6225335;22;20118;-89
2022/04/13 02:48:15;;;;;;;0.28;0.28;;;;;;;2.36;100.00;97697.53;6224611;22;20035;-88
2022/04/13 02:50:41;;;;;;;1.48;1.38;;;;;;;2.29;100.00;97693.31;6224778;22;20008;-88
2022/04/13 02:53:07;;;;;;;0.82;0.82;;;;;;;2.19;100.00;97683.91;6226264;22;20046;-88
2022/04/13 02:55:33;;;;;;;0.38;0.38;;;;;;;2.04;100.00;97693.09;6225112;22;20042;-88
2022/04/13 02:57:58;;;;;;;0.20;0.20;;;;;;;2.03;100.00;97690.50;6251045;22;20003;-89
2022/04/13 03:00:24;;;;;;;0.20;0.20;;;;;;;2.04;100.00;97700.13;6250410;22;20003;-89
2022/04/13 03:02:49;;;;;;;0.20;0.20;;;;;;;2.00;100.00;97707.25;6224992;22;20027;-88
2022/04/13 03:05:15;;;;;;;0.30;0.30;;;;;;;1.94;100.00;97717.13;6223531;22;20011;-76
2022/04/13 03:07:43;;;;;;;0.20;0.20;;;;;;;1.85;100.00;97714.69;6224245;22;20004;-90
2022/04/13 03:10:09;;;;;;;3.30;1.88;;;;;;;1.95;100.00;97721.47;6225712;22;20435;-90
2022/04/13 03:12:35;;;;;;;0.20;0.20;;;;;;;1.96;100.00;97712.66;6224885;22;20010;-88
2022/04/13 03:15:06;;;;;;;1.90;1.33;;;;;;;1.97;100.00;97714.41;6251128;22;20026;-88
2022/04/13 03:17:32;;;;;;;0.20;0.20;;;;;;;1.98;100.00;97724.03;6225388;22;20012;-89
2022/04/13 03:19:58;;;;;;;0.20;0.20;;;;;;;1.97;100.00;97720.53;6226292;22;20019;-90
2022/04/13 03:22:24;;;;;;;0.30;0.30;;;;;;;2.08;100.00;97733.44;6225594;22;20004;-88
2022/04/13 03:24:51;;;;;;;0.20;0.20;;;;;;;2.02;100.00;97720.41;6225442;22;20027;-88
2022/04/13 03:27:17;;;;;;;0.20;0.20;;;;;;;1.98;100.00;97726.66;6250820;22;20003;-89
2022/04/13 03:29:43;;;;;;;0.63;0.63;;;;;;;2.04;100.00;97732.66;6224809;22;20439;-89
2022/04/13 03:32:08;;;;;;;0.30;0.30;;;;;;;2.05;100.00;97747.59;6224804;22;20053;-89
2022/04/13 03:34:34;;;;;;;0.20;0.20;;;;;;;2.09;100.00;97745.75;6222200;22;20039;-77
2022/04/13 03:37:00;;;;;;;2.55;2.45;;;;;;;2.07;100.00;97752.81;6222986;22;20004;-86
2022/04/13 03:39:28;;;;;;;1.90;1.77;;;;;;;1.97;100.00;97751.31;6224482;22;20003;-87
2022/04/13 03:41:54;;;;;;;0.70;0.70;;;;;;;1.82;100.00;97741.13;6223535;22;20117;-89
2022/04/13 03:44:20;;;;;;;0.68;0.68;;;;;;;1.79;100.00;97762.28;6225514;22;20513;-89
2022/04/13 03:46:46;;;;;;;5.25;4.03;;;;;;;1.66;100.00;97768.78;6225028;22;20073;-89
2022/04/13 03:49:12;;;;;;;1.65;1.58;;;;;;;1.44;100.00;97756.09;6226606;22;20004;-89
2022/04/13 03:51:41;;;;;;;2.08;0.90;;;;;;;1.34;100.00;97744.03;6228692;22;20027;-90
2022/04/13 03:54:16;;;;;;;1.85;1.75;;;;;;;1.39;100.00;97768.50;6226946;22;20020;-89
2022/04/13 03:56:41;;;;;;;0.43;0.43;;;;;;;1.41;100.00;97760.56;6227818;22;20006;-89
2022/04/13 03:59:07;;;;;;;0.30;0.30;;;;;;;1.53;100.00;97761.16;6225208;22;20007;-89
2022/04/13 04:01:36;;;;;;;0.30;0.30;;;;;;;1.71;100.00;97777.44;6251313;22;20007;-90
2022/04/13 04:04:02;;;;;;;0.82;0.82;;;;;;;1.80;100.00;97790.41;6225830;22;20000;-91
2022/04/13 04:06:28;;;;;;;0.30;0.30;;;;;;;1.87;100.00;97784.09;6250637;22;20003;-90
2022/04/13 04:08:53;;;;;;;0.20;0.20;;;;;;;1.88;100.00;97780.53;6226417;22;20011;-89
2022/04/13 04:11:19;;;;;;;0.90;0.90;;;;;;;1.87;100.00;97781.44;6219232;22;20425;-89
2022/04/13 04:13:45;;;;;;;2.83;2.70;;;;;;;1.94;100.00;97804.16;6224656;22;20008;-90
2022/04/13 04:16:10;;;;;;;0.20;0.20;;;;;;;1.83;100.00;97782.41;6222688;22;20035;-89
2022/04/13 04:18:36;;;;;;;1.58;1.48;;;;;;;1.89;100.00;97784.91;6225075;22;20003;-90
2022/04/13 04:21:02;;;;;;;0.70;0.70;;;;;;;1.97;100.00;97804.06;6227087;22;20011;-89
2022/04/13 04:23:27;;;;;;;0.22;0.22;;;;;;;1.94;100.00;97798.88;6227261;22;20080;-88
2022/04/13 04:25:53;;;;;;;0.52;0.52;;;;;;;2.02;100.00;97802.19;6227218;22;20007;-90
2022/04/13 04:28:18;;;;;;;0.40;0.40;;;;;;;2.06;100.00;97809.97;6253583;22;20086;-90
2022/04/13 04:30:44;;;;;;;0.20;0.20;;;;;;;2.16;100.00;97814.13;6229683;22;20000;-90
2022/04/13 04:33:12;;;;;;;0.70;0.70;;;;;;;2.31;100.00;97819.94;6227632;22;20038;-91
2022/04/13 04:35:39;;;;;;;0.40;0.40;;;;;;;2.37;100.00;97815.34;6254240;22;20000;-90
2022/04/13 04:38:05;;;;;;;0.70;0.70;;;;;;;2.47;100.00;97810.72;6227938;22;20462;-90
2022/04/13 04:40:31;;;;;;;1.27;1.27;;;;;;;2.63;100.00;97827.91;6226652;22;20014;-89
2022/04/13 04:42:59;;;;;;;0.40;0.40;;;;;;;2.80;100.00;97830.94;6275742;22;20007;-90
2022/04/13 04:45:25;;;;;;;0.40;0.40;;;;;;;2.95;100.00;97819.13;6251458;22;20039;-90
2022/04/13 04:47:52;;;;;;;2.15;2.05;;;;;;;3.23;100.00;97828.00;6252138;22;20011;-90
2022/04/13 04:50:19;;;;;;;0.85;0.85;;;;;;;3.59;100.00;97826.94;6253422;22;20007;-90
2022/04/13 04:52:45;;;;;;;0.10;0.10;;;;;;;4.31;100.00;97826.41;6228731;22;20459;-89
2022/04/13 04:55:14;;;;;;;0.20;0.20;;;;;;;5.01;100.00;97844.34;6252295;22;19999;-90
2022/04/13 04:57:39;;;;;;;6.15;3.55;;;;;;;5.96;92.81;97839.00;6251126;22;20003;-89
2022/04/13 05:00:08;;;;;;;0.10;0.10;;;;;;;6.60;84.76;97832.88;6226573;22;20014;-89
2022/04/13 05:02:35;;;;;;;0.10;0.10;;;;;;;7.36;79.68;97836.63;6227645;22;20027;-89
2022/04/13 05:05:02;;;;;;;0.45;0.45;;;;;;;8.20;75.54;97844.25;6227841;22;20003;-89
2022/04/13 05:07:27;;;;;;;2.25;1.85;;;;;;;7.68;72.66;97848.50;6227085;22;20067;-91
2022/04/13 05:09:53;;;;;;;1.60;1.48;;;;;;;7.22;75.53;97843.50;6228152;22;20004;-89
2022/04/13 05:12:19;;;;;;;0.20;0.20;;;;;;;7.48;74.93;97859.16;6228576;22;20008;-89
2022/04/13 05:14:44;;;;;;;0.10;0.10;;;;;;;7.98;72.65;97854.19;6227625;22;20004;-89
2022/04/13 05:17:10;;;;;;;0.10;0.10;;;;;;;8.06;70.33;97842.25;6227793;22;20007;-90
2022/04/13 05:19:35;;;;;;;0.10;0.10;;;;;;;8.36;69.39;97852.44;6226626;22;20435;-89
2022/04/13 05:22:01;;;;;;;0.10;0.10;;;;;;;8.36;68.35;97855.09;6227939;22;20010;-90
2022/04/13 05:24:27;;;;;;;0.40;0.40;;;;;;;8.28;67.78;97857.25;6230279;22;20050;-90
2022/04/13 05:26:53;;;;;;;2.28;1.17;;;;;;;8.41;67.19;97863.72;6229193;22;20019;-91
2022/04/13 05:29:19;;;;;;;12.50;6.93;;;;;;;8.86;64.50;97848.13;6226871;22;20003;-90
2022/04/13 05:31:44;;;;;;;0.30;0.30;;;;;;;9.94;60.77;97827.22;6215790;23;20004;-91
2022/04/13 05:34:10;;;;;;;0.10;0.10;;;;;;;11.54;56.07;97825.00;6222547;23;20075;-90
2022/04/13 05:36:35;;;;;;;0.55;0.55;;;;;;;13.76;50.37;97812.03;6216083;22;20011;-90
2022/04/13 05:39:01;;;;;;;2.00;1.90;;;;;;;14.57;47.42;97802.56;6227532;22;20010;-90
2022/04/13 05:41:27;;;;;;;9.23;2.40;;;;;;;15.36;44.85;97801.03;6254346;22;20523;-89
2022/04/13 05:43:52;;;;;;;1.42;1.02;;;;;;;15.02;44.68;97795.56;6229698;22;20137;-90
2022/04/13 05:46:18;;;;;;;0.13;0.13;;;;;;;15.44;44.44;97798.63;6228800;22;20019;-89
2022/04/13 05:48:44;;;;;;;0.40;0.40;;;;;;;15.39;44.10;97785.50;6228126;22;20003;-88
2022/04/13 05:51:09;;;;;;;0.63;0.63;;;;;;;15.32;44.61;97815.75;6226845;22;20006;-90
2022/04/13 05:53:36;;;;;;;1.98;1.80;;;;;;;16.26;43.09;97793.84;6228597;22;19999;-89
2022/04/13 05:56:02;;;;;;;0.08;0.08;;;;;;;17.39;40.78;97801.50;6228348;22;20102;-90
2022/04/13 05:58:28;;;;;;;4.75;2.55;;;;;;;17.80;39.18;97779.88;6222606;23;20375;-90
2022/04/13 06:00:54;;;;;;;0.20;0.20;;;;;;;17.79;38.78;97783.56;6223507;22;20007;-90
2022/04/13 06:03:20;;;;;;;0.50;0.50;;;;;;;16.72;40.84;97801.75;6229424;22;20359;-90
2022/04/13 06:05:46;;;;;;;1.45;0.43;;;;;;;17.01;40.50;97814.72;6230054;22;20027;-89
2022/04/13 06:08:13;;;;;;;1.45;1.35;;;;;;;18.26;38.10;97805.59;6249875;22;20356;-90
2022/04/13 06:10:38;;;;;;;0.75;0.75;;;;;;;17.94;38.45;97803.03;6228387;22;20003;-89
2022/04/13 06:13:04;;;;;;;2.25;2.15;;;;;;;18.69;37.95;97808.94;6229996;22;20022;-90
2022/04/13 06:15:31;;;;;;;0.30;0.30;;;;;;;18.52;37.48;97790.59;6231045;22;20355;-91
2022/04/13 06:17:56;;;;;;;0.57;0.57;;;;;;;18.35;38.02;97792.09;6227463;22;20004;-90
2022/04/13 06:20:22;;;;;;;0.63;0.63;;;;;;;17.76;38.73;97794.66;6228263;22;20049;-90
2022/04/13 06:22:49;;;;;;;2.83;2.63;;;;;;;18.20;37.46;97808.84;6252291;22;20081;-90
2022/04/13 06:25:15;;;;;;;0.00;0.00;;;;;;;18.41;37.24;97796.13;6226199;22;20063;-89
2022/04/13 06:27:41;;;;;;;0.52;0.52;;;;;;;18.77;36.52;97803.66;6226638;22;20046;-91
2022/04/13 06:30:08;;;;;;;0.52;0.45;;;;;;;19.56;35.51;97788.19;6226504;22;20356;-89
2022/04/13 06:32:35;;;;;;;0.38;0.38;;;;;;;18.87;36.58;97799.13;6225630;22;20510;-90
2022/04/13 06:35:01;;;;;;;1.45;0.77;;;;;;;18.40;36.55;97797.09;6226889;22;20006;-88
2022/04/13 06:37:27;;;;;;;0.90;0.85;;;;;;;18.54;36.50;97791.34;6226292;22;20019;-90
2022/04/13 06:39:56;;;;;;;0.05;0.05;;;;;;;18.66;36.01;97757.72;6226805;22;20008;-90
2022/04/13 06:42:22;;;;;;;1.50;1.05;;;;;;;18.58;36.22;97781.09;6253633;22;19999;-90
2022/04/13 06:44:54;;;;;;;0.98;0.85;;;;;;;19.06;36.12;97792.00;6228217;22;20016;-90
2022/04/13 06:47:20;;;;;;;1.35;0.43;;;;;;;20.06;35.00;97793.38;6227676;22;20008;-89
2022/04/13 06:49:55;;;;;;;0.10;0.10;;;;;;;20.64;33.97;97772.25;6253909;22;20007;-88
2022/04/13 06:52:21;;;;;;;4.60;2.38;;;;;;;20.57;34.09;97765.69;6229449;22;20079;-88
2022/04/13 06:54:52;;;;;;;0.40;0.40;;;;;;;20.84;33.78;97771.09;6257175;22;20359;-89
2022/04/13 06:57:18;;;;;;;0.65;0.65;;;;;;;21.35;32.75;97773.19;6225845;22;20426;-90
2022/04/13 06:59:44;;;;;;;3.00;0.73;;;;;;;21.87;31.81;97774.13;6226119;22;20000;-90
2022/04/13 07:02:10;;;;;;;0.35;0.35;;;;;;;21.43;32.50;97782.28;6234185;22;20008;-89
2022/04/13 07:04:39;;;;;;;0.68;0.68;;;;;;;21.96;32.08;97784.09;6225354;22;20027;-91
2022/04/13 07:07:05;;;;;;;0.00;0.00;;;;;;;22.34;31.51;97775.44;6226219;22;20079;-90
2022/04/13 07:09:32;;;;;;;0.65;0.65;;;;;;;22.85;31.48;97768.19;6224910;22;20007;-90
2022/04/13 07:11:57;;;;;;;0.43;0.43;;;;;;;22.50;31.38;97766.50;6224507;22;20007;-90
2022/04/13 07:14:23;;;;;;;0.68;0.68;;;;;;;21.82;32.40;97780.03;6224500;22;20015;-90
2022/04/13 07:16:49;;;;;;;0.25;0.25;;;;;;;22.10;32.68;97781.63;6226614;22;20035;-90
2022/04/13 07:19:15;;;;;;;0.20;0.20;;;;;;;22.73;31.71;97777.72;6252950;22;20440;-90
2022/04/13 07:21:41;;;;;;;0.50;0.50;;;;;;;22.97;30.78;97775.91;6225972;22;20108;-90
2022/04/13 07:24:07;;;;;;;0.28;0.28;;;;;;;22.65;30.12;97762.16;6250548;22;20061;-88
2022/04/13 07:26:33;;;;;;;0.10;0.10;;;;;;;23.08;29.37;97767.41;6225411;22;20004;-89
2022/04/13 07:29:00;;;;;;;0.30;0.25;;;;;;;22.20;29.86;97775.22;6226016;22;20003;-91
2022/04/13 07:31:25;;;;;;;1.25;0.57;;;;;;;21.50;31.08;97766.19;6226148;22;20008;-88
2022/04/13 07:33:51;;;;;;;0.00;0.00;;;;;;;22.74;29.89;97763.03;6226553;22;20031;-89
2022/04/13 07:36:16;;;;;;;0.00;0.00;;;;;;;24.27;27.44;97753.03;6226844;22;20018;-89
2022/04/13 07:38:42;;;;;;;0.40;0.40;;;;;;;25.08;26.75;97760.06;6226532;22;20082;-89
2022/04/13 07:41:08;;;;;;;0.15;0.15;;;;;;;25.21;26.06;97761.19;6226522;22;20329;-89
2022/04/13 07:43:37;;;;;;;0.40;0.40;;;;;;;24.98;25.62;97743.03;6226376;22;20074;-88
2022/04/13 07:46:02;;;;;;;0.20;0.20;;;;;;;23.14;26.94;97750.34;6227387;22;20095;-90
2022/04/13 07:48:29;;;;;;;1.05;0.45;;;;;;;23.28;27.05;97747.97;6252154;22;20436;-89
2022/04/13 07:50:55;;;;;;;0.00;0.00;;;;;;;22.86;27.04;97754.38;6226318;22;20003;-88
2022/04/13 07:53:21;;;;;;;0.20;0.20;;;;;;;25.00;25.20;97750.03;6224763;22;20004;-89
2022/04/13 07:55:46;;;;;;;0.10;0.10;;;;;;;26.07;23.18;97736.16;6228464;22;20011;-90
2022/04/13 07:58:12;;;;;;;1.15;0.70;;;;;;;25.87;23.56;97751.47;6228772;22;20007;-89
2022/04/13 08:00:43;;;;;;;0.00;0.00;;;;;;;24.08;23.77;97726.09;6229012;22;20012;-87
2022/04/13 08:03:10;;;;;;;0.10;0.10;;;;;;;24.86;23.78;97731.63;6254694;22;20050;-89
2022/04/13 08:05:35;;;;;;;4.63;4.32;;;;;;;24.51;23.65;97735.72;6227000;22;20003;-88
2022/04/13 08:08:01;;;;;;;1.20;1.10;;;;;;;23.25;25.01;97731.94;6230312;22;20008;-87
2022/04/13 08:10:29;;;;;;;1.00;0.63;;;;;;;23.67;24.38;97730.78;6253059;22;20436;-88
2022/04/13 08:12:55;;;;;;;1.17;0.80;;;;;;;24.90;23.98;97732.97;6204994;22;20027;-88
2022/04/13 08:15:21;;;;;;;0.32;0.15;;;;;;;25.38;22.64;97715.34;6252641;22;20000;-89
2022/04/13 08:17:46;;;;;;;0.22;0.22;;;;;;;25.63;22.91;97732.47;6227568;22;20427;-89
2022/04/13 08:20:14;;;;;;;0.10;0.10;;;;;;;24.69;23.73;97733.59;6224155;22;20145;-88
2022/04/13 08:22:40;;;;;;;1.38;0.52;;;;;;;25.39;23.31;97732.63;6228257;22;20004;-88
2022/04/13 08:25:05;;;;;;;0.00;0.00;;;;;;;26.10;22.52;97741.28;6227875;22;19996;-89
2022/04/13 08:27:32;;;;;;;1.65;1.55;;;;;;;26.03;22.14;97734.81;6226771;22;20086;-89
2022/04/13 08:29:58;;;;;;;0.00;0.00;;;;;;;27.22;21.03;97729.94;6252125;22;20000;-89
2022/04/13 08:32:23;;;;;;;0.00;0.00;;;;;;;27.12;20.98;97726.66;6226252;22;20094;-89
2022/04/13 08:34:52;;;;;;;0.05;0.05;;;;;;;27.82;20.48;97723.13;6251335;22;20087;-90
2022/04/13 08:37:22;;;;;;;0.15;0.15;;;;;;;26.55;21.89;97703.75;6228684;22;20011;-90
2022/04/13 08:39:48;;;;;;;0.47;0.47;;;;;;;26.32;22.21;97732.16;6228248;22;20010;-89
2022/04/13 08:42:27;;;;;;;0.00;0.00;;;;;;;26.27;22.20;97726.34;6229659;22;20004;-90
2022/04/13 08:45:01;;;;;;;0.20;0.20;;;;;;;26.11;22.19;97715.56;6255779;22;20011;-92
2022/04/13 08:47:28;;;;;;;0.70;0.63;;;;;;;26.33;21.98;97724.78;6256714;22;20014;-92
2022/04/13 08:49:54;;;;;;;0.00;0.00;;;;;;;25.89;22.04;97713.72;6256625;22;20008;-89
2022/04/13 08:52:32;;;;;;;0.63;0.50;;;;;;;27.00;21.29;97713.63;6227277;22;20443;-89
2022/04/13 08:55:06;;;;;;;0.32;0.32;;;;;;;27.58;21.22;97707.06;6251687;22;20082;-88
2022/04/13 08:57:37;;;;;;;0.00;0.00;;;;;;;28.35;20.92;97703.22;6252711;22;20003;-91
2022/04/13 09:00:22;;;;;;;0.17;0.17;;;;;;;28.09;21.14;97705.78;6228818;22;20428;-90
2022/04/13 09:02:47;;;;;;;0.28;0.28;;;;;;;27.60;21.40;97713.19;6227779;22;20511;-90
2022/04/13 09:05:25;;;;;;;0.00;0.00;;;;;;;29.02;19.88;97705.25;6280501;22;19996;-91
2022/04/13 09:08:16;;;;;;;0.00;0.00;;;;;;;27.53;20.60;97693.06;6226931;22;20503;-88
2022/04/13 09:10:43;;;;;;;0.10;0.10;;;;;;;28.07;20.18;97699.66;6226395;22;20035;-90
2022/04/13 09:13:12;;;;;;;0.20;0.20;;;;;;;27.25;21.04;97698.47;6226241;22;20007;-90
2022/04/13 09:15:39;;;;;;;0.08;0.08;;;;;;;28.75;19.55;97692.44;6226961;22;20436;-90
2022/04/13 09:18:06;;;;;;;0.00;0.00;;;;;;;28.92;18.98;97688.25;6227072;22;20003;-91
2022/04/13 09:20:32;;;;;;;0.30;0.30;;;;;;;27.63;19.32;97653.16;6226159;22;20078;-89
2022/04/13 09:23:01;;;;;;;0.30;0.20;;;;;;;27.23;20.32;97675.81;6229503;22;20035;-91
2022/04/13 09:25:34;;;;;;;0.13;0.13;;;;;;;28.62;19.73;97681.31;6230355;22;20004;-91
2022/04/13 09:28:01;;;;;;;2.72;1.00;;;;;;;27.32;19.54;97661.75;6228034;22;20004;-90
2022/04/13 09:30:27;;;;;;;0.10;0.10;;;;;;;28.08;18.92;97671.09;6225176;22;20086;-91
2022/04/13 09:32:53;;;;;;;0.43;0.43;;;;;;;27.11;19.97;97667.25;6225492;22;20007;-91
2022/04/13 09:35:20;;;;;;;0.00;0.00;;;;;;;25.54;21.63;97665.06;6225118;22;20472;-90
2022/04/13 09:37:46;;;;;;;0.00;0.00;;;;;;;26.54;20.26;97671.84;6225585;22;20009;-89
2022/04/13 09:40:33;;;;;;;0.32;0.28;;;;;;;28.41;19.38;97652.00;6225413;22;20014;-90
2022/04/13 09:43:18;;;;;;;1.00;0.45;;;;;;;28.58;19.47;97658.03;6277391;22;20021;-90
2022/04/13 09:45:49;;;;;;;0.00;0.00;;;;;;;29.37;18.85;97675.69;6225463;22;20432;-89
2022/04/13 09:48:18;;;;;;;0.00;0.00;;;;;;;28.87;18.91;97663.25;6226637;22;20012;-90
2022/04/13 09:50:47;;;;;;;0.13;0.13;;;;;;;27.07;19.29;97643.13;6226666;22;20004;-90
2022/04/13 09:53:14;;;;;;;0.40;0.40;;;;;;;28.08;18.49;97646.34;6226043;22;20004;-90
2022/04/13 09:55:45;;;;;;;1.55;0.63;;;;;;;28.20;19.15;97649.38;6251283;22;20003;-90
2022/04/13 09:58:15;;;;;;;0.30;0.25;;;;;;;27.06;20.78;97645.03;6226316;22;20007;-89
2022/04/13 10:00:42;;;;;;;0.00;0.00;;;;;;;27.85;19.91;97645.72;6225875;22;20038;-90
2022/04/13 10:03:11;;;;;;;0.17;0.17;;;;;;;27.16;19.95;97645.56;6227442;22;20038;-90
2022/04/13 10:05:41;;;;;;;0.10;0.10;;;;;;;24.74;21.89;97634.50;6226122;22;20329;-90
2022/04/13 10:08:08;;;;;;;0.13;0.13;;;;;;;24.90;21.77;97642.66;6227634;22;20016;-90
2022/04/13 10:10:34;;;;;;;0.30;0.30;;;;;;;25.68;20.75;97634.13;6225709;22;20011;-91
2022/04/13 10:13:01;;;;;;;0.05;0.05;;;;;;;25.65;20.87;97642.72;6226192;22;20008;-89
2022/04/13 10:15:26;;;;;;;0.00;0.00;;;;;;;25.61;21.08;97636.75;6224681;22;20027;-89
2022/04/13 10:18:06;;;;;;;0.15;0.15;;;;;;;26.50;19.87;97640.34;6225351;22;20004;-89
2022/04/13 10:20:48;;;;;;;2.60;1.75;;;;;;;24.54;20.84;97630.56;6248075;22;20007;-87
2022/04/13 10:23:14;;;;;;;0.10;0.10;;;;;;;26.16;19.65;97622.63;6225939;22;20106;-89
2022/04/13 10:25:43;;;;;;;0.10;0.10;;;;;;;26.67;19.74;97628.94;6251163;22;19999;-89
2022/04/13 10:28:12;;;;;;;0.22;0.22;;;;;;;27.49;19.04;97634.03;6225407;22;20018;-88
2022/04/13 10:30:42;;;;;;;0.10;0.10;;;;;;;27.29;19.30;97618.19;6225231;22;20438;-88
2022/04/13 10:33:09;;;;;;;0.60;0.57;;;;;;;28.33;18.18;97633.75;6223989;22;20011;-89
2022/04/13 10:35:40;;;;;;;0.13;0.13;;;;;;;28.45;18.21;97612.03;6224410;22;20359;-89
2022/04/13 10:38:06;;;;;;;0.55;0.43;;;;;;;27.57;18.91;97631.97;6224542;22;20010;-88
2022/04/13 10:40:34;;;;;;;0.30;0.25;;;;;;;25.62;20.24;97615.69;6223973;22;20011;-88
2022/04/13 10:43:07;;;;;;;1.08;0.65;;;;;;;26.55;20.40;97624.16;6224339;22;20351;-88
2022/04/13 10:45:34;;;;;;;4.78;0.70;;;;;;;27.62;20.06;97628.66;6224295;22;20023;-88
2022/04/13 10:48:01;;;;;;;1.17;0.68;;;;;;;26.98;19.93;97627.84;6226080;22;20086;-89
2022/04/13 10:50:30;;;;;;;0.55;0.13;;;;;;;24.88;21.47;97625.56;6224052;22;20344;-89
2022/04/13 10:53:20;;;;;;;0.20;0.20;;;;;;;24.37;21.89;97620.72;6249018;22;20077;-88
2022/04/13 10:55:52;;;;;;;1.00;0.30;;;;;;;26.57;20.16;97616.56;6249235;22;20008;-89
2022/04/13 10:58:55;;;;;;;0.00;0.00;;;;;;;26.88;19.51;97611.69;6249870;22;20399;-88
2022/04/13 11:01:21;;;;;;;0.20;0.20;;;;;;;26.53;19.85;97604.28;6249184;22;20011;-88
2022/04/13 11:03:47;;;;;;;0.75;0.63;;;;;;;27.90;19.60;97599.22;6224486;22;20004;-88
2022/04/13 11:06:13;;;;;;;0.10;0.10;;;;;;;29.17;18.38;97590.19;6224515;22;20069;-88
2022/04/13 11:09:09;;;;;;;0.10;0.05;;;;;;;28.48;18.57;97598.69;6249496;22;20011;-88
2022/04/13 11:11:36;;;;;;;0.45;0.32;;;;;;;28.70;18.32;97585.63;6276292;22;20000;-88
2022/04/13 11:14:17;;;;;;;0.93;0.60;;;;;;;28.30;18.70;97590.13;6224812;22;20000;-88
2022/04/13 11:16:42;;;;;;;0.20;0.20;;;;;;;29.52;17.22;97572.41;6224559;22;20008;-89
2022/04/13 11:19:08;;;;;;;0.10;0.10;;;;;;;27.78;18.07;97582.44;6249097;22;20011;-89
2022/04/13 11:21:55;;;;;;;1.25;0.20;;;;;;;27.82;18.12;97582.88;6249338;22;20004;-88
2022/04/13 11:24:34;;;;;;;0.13;0.13;;;;;;;27.97;18.45;97576.19;6249208;22;20007;-88
2022/04/13 11:27:00;;;;;;;0.30;0.30;;;;;;;26.65;18.45;97567.03;6224846;22;20030;-88
2022/04/13 11:29:33;;;;;;;0.00;0.00;;;;;;;27.09;18.74;97586.94;6224010;22;20012;-87
2022/04/13 11:32:02;;;;;;;0.47;0.45;;;;;;;27.80;18.84;97582.25;6225481;22;20031;-89
2022/04/13 11:34:38;;;;;;;0.10;0.10;;;;;;;28.95;18.59;97589.50;6276356;22;20027;-88
2022/04/13 11:37:07;;;;;;;0.00;0.00;;;;;;;27.58;19.03;97567.72;6224550;22;20007;-88